createdAt,value
2023-02-09T00:00:39.849Z,47.59
2023-02-09T00:01:41.374Z,47.62
2023-02-09T00:02:42.951Z,47.92
2023-02-09T00:03:44.571Z,47.61
2023-02-09T00:04:46.069Z,47.36
2023-02-09T00:05:47.562Z,47.82
2023-02-09T00:06:49.064Z,47.96
2023-02-09T00:07:50.720Z,48.18
2023-02-09T00:08:52.329Z,47.80
2023-02-09T00:09:53.827Z,48.34
2023-02-09T00:10:55.326Z,47.96
2023-02-09T00:12:15.423Z,48.24
2023-02-09T00:13:25.682Z,48.41
2023-02-09T00:14:27.200Z,48.45
2023-02-09T00:15:28.681Z,48.29
2023-02-09T00:16:30.298Z,48.42
2023-02-09T00:17:35.853Z,48.62
2023-02-09T00:18:37.377Z,48.09
2023-02-09T00:19:38.912Z,48.56
2023-02-09T00:20:40.395Z,48.36
2023-02-09T00:21:41.894Z,48.80
2023-02-09T00:22:43.391Z,48.90
2023-02-09T00:23:44.842Z,48.87
2023-02-09T00:24:46.378Z,48.57
2023-02-09T00:25:47.833Z,48.30
2023-02-09T00:26:49.338Z,48.68
2023-02-09T00:27:51.663Z,48.44
2023-02-09T00:28:53.140Z,48.28
2023-02-09T00:29:55.220Z,48.97
2023-02-09T00:30:56.774Z,48.50
2023-02-09T00:31:58.268Z,49.00
2023-02-09T00:32:59.866Z,48.72
2023-02-09T00:34:01.483Z,48.50
2023-02-09T00:35:03.212Z,48.98
2023-02-09T00:36:07.854Z,48.50
2023-02-09T00:37:09.627Z,48.97
2023-02-09T00:38:11.372Z,49.03
2023-02-09T00:39:12.881Z,49.11
2023-02-09T00:40:14.413Z,48.74
2023-02-09T00:41:15.901Z,48.88
2023-02-09T00:42:18.183Z,49.12
2023-02-09T00:43:19.649Z,48.76
2023-02-09T00:44:21.147Z,49.19
2023-02-09T00:45:22.713Z,48.55
2023-02-09T00:46:24.160Z,48.64
2023-02-09T00:47:25.786Z,48.47
2023-02-09T00:48:27.411Z,48.57
2023-02-09T00:49:29.049Z,48.70
2023-02-09T00:50:30.528Z,48.72
2023-02-09T00:51:31.988Z,49.03
2023-02-09T00:52:33.449Z,48.71
2023-02-09T00:53:34.967Z,49.23
2023-02-09T00:54:36.554Z,48.71
2023-02-09T00:55:38.044Z,49.28
2023-02-09T00:56:40.995Z,48.84
2023-02-09T00:57:42.474Z,48.73
2023-02-09T00:58:43.978Z,48.94
2023-02-09T00:59:45.652Z,48.67
2023-02-09T01:00:48.463Z,49.13
2023-02-09T01:01:50.051Z,49.36
2023-02-09T01:02:51.613Z,49.27
2023-02-09T01:03:53.134Z,49.21
2023-02-09T01:04:55.132Z,48.87
2023-02-09T01:05:58.272Z,49.47
2023-02-09T01:06:59.808Z,49.05
2023-02-09T01:08:01.275Z,48.73
2023-02-09T01:09:02.884Z,48.95
2023-02-09T01:10:04.506Z,49.38
2023-02-09T01:11:09.450Z,49.55
2023-02-09T01:12:10.941Z,49.63
2023-02-09T01:13:12.737Z,49.25
2023-02-09T01:14:14.253Z,48.98
2023-02-09T01:15:15.819Z,49.66
2023-02-09T01:16:18.840Z,49.52
2023-02-09T01:17:20.443Z,49.37
2023-02-09T01:18:21.942Z,49.31
2023-02-09T01:19:23.464Z,49.35
2023-02-09T01:20:24.933Z,49.92
2023-02-09T01:21:26.484Z,49.30
2023-02-09T01:22:27.960Z,49.70
2023-02-09T01:23:29.468Z,49.69
2023-02-09T01:24:31.052Z,50.38
2023-02-09T01:25:32.557Z,50.58
2023-02-09T01:26:34.084Z,50.32
2023-02-09T01:27:35.637Z,50.23
2023-02-09T01:28:37.171Z,50.05
2023-02-09T01:29:39.227Z,50.30
2023-02-09T01:30:40.982Z,49.81
2023-02-09T01:31:42.772Z,50.06
2023-02-09T01:32:44.405Z,50.42
2023-02-09T01:33:45.890Z,50.44
2023-02-09T01:34:50.254Z,50.25
2023-02-09T01:36:03.246Z,50.13
2023-02-09T01:37:04.787Z,50.18
2023-02-09T01:38:06.276Z,50.05
2023-02-09T01:39:07.794Z,49.88
2023-02-09T01:40:09.786Z,50.04
2023-02-09T01:41:11.411Z,49.97
2023-02-09T01:42:14.770Z,50.20
2023-02-09T01:43:16.486Z,50.45
2023-02-09T01:44:17.983Z,50.38
2023-02-09T01:45:21.463Z,50.39
2023-02-09T01:46:24.718Z,50.56
2023-02-09T01:47:26.189Z,50.63
2023-02-09T01:48:28.587Z,50.65
2023-02-09T01:49:30.812Z,50.83
2023-02-09T01:50:37.669Z,50.77
2023-02-09T01:51:43.674Z,50.19
2023-02-09T01:52:45.146Z,50.53
2023-02-09T01:53:46.830Z,50.57
2023-02-09T01:54:49.605Z,50.35
2023-02-09T01:55:55.320Z,50.48
2023-02-09T01:56:58.837Z,50.25
2023-02-09T01:58:04.093Z,50.67
2023-02-09T01:59:05.569Z,50.19
2023-02-09T02:00:17.278Z,50.41
2023-02-09T02:01:19.321Z,50.35
2023-02-09T02:02:21.404Z,50.11
2023-02-09T02:03:24.319Z,50.53
2023-02-09T02:04:25.880Z,50.66
2023-02-09T02:05:27.423Z,50.13
2023-02-09T02:06:28.877Z,50.21
2023-02-09T02:07:33.054Z,50.20
2023-02-09T02:08:54.763Z,50.59
2023-02-09T02:09:56.235Z,50.31
2023-02-09T02:10:57.807Z,50.80
2023-02-09T02:11:59.296Z,50.25
2023-02-09T02:13:00.760Z,50.12
2023-02-09T02:14:02.338Z,50.39
2023-02-09T02:15:03.949Z,50.59
2023-02-09T02:16:11.170Z,50.60
2023-02-09T02:17:12.733Z,50.79
2023-02-09T02:18:17.014Z,50.91
2023-02-09T02:19:31.462Z,50.80
2023-02-09T02:20:51.452Z,50.65
2023-02-09T02:22:11.875Z,50.42
2023-02-09T02:23:19.567Z,50.80
2023-02-09T02:24:40.044Z,50.49
2023-02-09T02:25:50.944Z,50.63
2023-02-09T02:26:56.639Z,50.48
2023-02-09T02:28:17.384Z,51.08
2023-02-09T02:29:30.763Z,50.74
2023-02-09T02:30:38.571Z,50.86
2023-02-09T02:31:40.130Z,50.88
2023-02-09T02:32:47.321Z,50.95
2023-02-09T02:33:52.292Z,51.19
2023-02-09T02:35:01.776Z,51.00
2023-02-09T02:36:03.250Z,51.36
2023-02-09T02:37:04.704Z,51.60
2023-02-09T02:38:11.822Z,51.51
2023-02-09T02:39:18.659Z,51.35
2023-02-09T02:40:20.229Z,51.03
2023-02-09T02:41:51.005Z,51.44
2023-02-09T02:42:52.883Z,51.27
2023-02-09T02:44:08.328Z,51.42
2023-02-09T02:45:22.072Z,50.94
2023-02-09T02:46:38.399Z,51.27
2023-02-09T02:47:40.573Z,51.21
2023-02-09T02:48:44.894Z,50.94
2023-02-09T02:49:46.375Z,50.98
2023-02-09T02:50:50.581Z,51.61
2023-02-09T02:51:52.892Z,51.25
2023-02-09T02:52:56.575Z,51.13
2023-02-09T02:53:58.448Z,51.60
2023-02-09T02:55:04.230Z,51.54
2023-02-09T02:56:07.500Z,51.57
2023-02-09T02:57:10.308Z,51.18
2023-02-09T02:58:11.957Z,51.34
2023-02-09T02:59:14.613Z,50.94
2023-02-09T03:00:25.711Z,51.65
2023-02-09T03:01:30.086Z,51.23
2023-02-09T03:02:33.637Z,51.43
2023-02-09T03:03:35.198Z,51.03
2023-02-09T03:04:36.762Z,51.54
2023-02-09T03:05:38.354Z,51.36
2023-02-09T03:06:39.890Z,51.49
2023-02-09T03:07:41.407Z,51.45
2023-02-09T03:08:52.032Z,51.54
2023-02-09T03:09:54.314Z,51.19
2023-02-09T03:10:55.789Z,51.21
2023-02-09T03:11:57.749Z,51.71
2023-02-09T03:13:03.469Z,51.69
2023-02-09T03:14:16.917Z,51.73
2023-02-09T03:15:19.821Z,51.89
2023-02-09T03:16:29.303Z,51.72
2023-02-09T03:17:30.775Z,51.68
2023-02-09T03:18:32.223Z,51.83
2023-02-09T03:19:42.852Z,52.00
2023-02-09T03:20:57.246Z,51.95
2023-02-09T03:22:21.731Z,51.91
2023-02-09T03:23:26.131Z,51.99
2023-02-09T03:25:00.161Z,51.64
2023-02-09T03:26:03.825Z,51.82
2023-02-09T03:27:10.165Z,51.88
2023-02-09T03:28:24.912Z,52.02
2023-02-09T03:29:26.604Z,51.99
2023-02-09T03:30:28.135Z,51.83
2023-02-09T03:31:29.706Z,51.95
2023-02-09T03:32:31.489Z,51.93
2023-02-09T03:33:33.338Z,51.86
2023-02-09T03:34:34.936Z,51.56
2023-02-09T03:35:37.549Z,51.74
2023-02-09T03:36:39.016Z,52.11
2023-02-09T03:37:40.509Z,51.58
2023-02-09T03:38:41.960Z,51.72
2023-02-09T03:39:43.470Z,51.59
2023-02-09T03:40:45.229Z,51.87
2023-02-09T03:41:46.840Z,51.65
2023-02-09T03:42:48.469Z,51.58
2023-02-09T03:44:08.508Z,51.71
2023-02-09T03:45:10.048Z,51.52
2023-02-09T03:46:11.537Z,51.72
2023-02-09T03:47:13.013Z,51.78
2023-02-09T03:48:14.479Z,51.92
2023-02-09T03:49:15.980Z,52.03
2023-02-09T03:50:17.564Z,51.84
2023-02-09T03:51:19.025Z,51.84
2023-02-09T03:52:20.502Z,52.06
2023-02-09T03:53:21.966Z,51.76
2023-02-09T03:54:23.518Z,51.67
2023-02-09T03:55:25.073Z,51.86
2023-02-09T03:56:26.562Z,51.77
2023-02-09T03:57:28.147Z,51.85
2023-02-09T03:58:29.627Z,51.96
2023-02-09T03:59:31.177Z,52.02
2023-02-09T04:00:32.717Z,52.40
2023-02-09T04:01:34.288Z,52.30
2023-02-09T04:02:35.826Z,52.19
2023-02-09T04:03:37.574Z,52.28
2023-02-09T04:04:39.081Z,52.21
2023-02-09T04:05:40.561Z,52.31
2023-02-09T04:06:42.061Z,52.18
2023-02-09T04:07:43.506Z,52.11
2023-02-09T04:08:44.993Z,51.97
2023-02-09T04:09:46.477Z,52.06
2023-02-09T04:10:48.068Z,52.15
2023-02-09T04:11:49.707Z,52.17
2023-02-09T04:12:51.237Z,52.17
2023-02-09T04:13:52.792Z,52.19
2023-02-09T04:14:54.284Z,52.10
2023-02-09T04:15:55.815Z,52.39
2023-02-09T04:16:57.304Z,52.17
2023-02-09T04:17:58.782Z,52.10
2023-02-09T04:19:00.277Z,52.19
2023-02-09T04:20:02.020Z,52.26
2023-02-09T04:21:03.565Z,52.25
2023-02-09T04:22:05.104Z,52.03
2023-02-09T04:23:08.862Z,52.19
2023-02-09T04:24:10.387Z,52.07
2023-02-09T04:25:11.862Z,52.40
2023-02-09T04:26:13.423Z,52.20
2023-02-09T04:27:14.941Z,52.62
2023-02-09T04:28:16.620Z,53.12
2023-02-09T04:29:18.125Z,53.01
2023-02-09T04:30:19.700Z,53.13
2023-02-09T04:31:21.302Z,52.95
2023-02-09T04:32:22.865Z,52.99
2023-02-09T04:33:24.491Z,52.99
2023-02-09T04:34:26.062Z,53.00
2023-02-09T04:35:27.556Z,52.78
2023-02-09T04:36:29.084Z,52.55
2023-02-09T04:37:30.532Z,52.47
2023-02-09T04:38:32.069Z,52.66
2023-02-09T04:39:33.534Z,52.82
2023-02-09T04:40:35.022Z,52.63
2023-02-09T04:41:36.468Z,52.49
2023-02-09T04:42:38.025Z,52.36
2023-02-09T04:43:39.483Z,52.59
2023-02-09T04:44:40.984Z,52.66
2023-02-09T04:45:42.603Z,52.63
2023-02-09T04:46:45.697Z,52.72
2023-02-09T04:47:47.310Z,52.80
2023-02-09T04:48:48.778Z,52.66
2023-02-09T04:49:50.283Z,53.18
2023-02-09T04:50:52.022Z,53.15
2023-02-09T04:51:53.556Z,53.23
2023-02-09T04:52:55.064Z,53.22
2023-02-09T04:53:56.520Z,53.05
2023-02-09T04:54:58.032Z,52.98
2023-02-09T04:55:59.501Z,53.09
2023-02-09T04:57:19.736Z,53.06
2023-02-09T04:58:40.023Z,53.05
2023-02-09T04:59:41.655Z,52.88
2023-02-09T05:00:43.290Z,52.85
2023-02-09T05:01:44.916Z,52.82
2023-02-09T05:02:46.408Z,52.66
2023-02-09T05:03:47.934Z,52.82
2023-02-09T05:04:49.471Z,52.65
2023-02-09T05:05:50.969Z,52.75
2023-02-09T05:06:52.482Z,52.74
2023-02-09T05:07:53.979Z,52.77
2023-02-09T05:08:55.450Z,52.46
2023-02-09T05:09:56.970Z,52.72
2023-02-09T05:10:58.522Z,52.89
2023-02-09T05:11:59.992Z,52.41
2023-02-09T05:13:01.479Z,52.45
2023-02-09T05:14:02.939Z,52.63
2023-02-09T05:15:04.531Z,52.66
2023-02-09T05:16:06.820Z,52.50
2023-02-09T05:17:08.332Z,52.44
2023-02-09T05:18:10.232Z,52.49
2023-02-09T05:19:11.716Z,52.47
2023-02-09T05:20:13.313Z,52.33
2023-02-09T05:21:14.833Z,52.36
2023-02-09T05:22:16.314Z,52.30
2023-02-09T05:23:17.992Z,52.22
2023-02-09T05:24:19.458Z,52.33
2023-02-09T05:25:20.958Z,52.18
2023-02-09T05:26:22.439Z,52.13
2023-02-09T05:27:23.896Z,52.16
2023-02-09T05:28:25.549Z,52.18
2023-02-09T05:29:27.087Z,52.05
2023-02-09T05:30:28.692Z,52.54
2023-02-09T05:31:30.254Z,52.56
2023-02-09T05:32:31.824Z,52.65
2023-02-09T05:33:33.352Z,52.49
2023-02-09T05:34:34.966Z,52.53
2023-02-09T05:35:36.567Z,52.59
2023-02-09T05:36:38.020Z,52.55
2023-02-09T05:37:39.522Z,52.65
2023-02-09T05:38:41.094Z,52.66
2023-02-09T05:39:42.561Z,52.37
2023-02-09T05:40:45.205Z,52.57
2023-02-09T05:42:05.450Z,52.43
2023-02-09T05:43:06.918Z,52.38
2023-02-09T05:44:08.533Z,52.70
2023-02-09T05:45:10.205Z,52.40
2023-02-09T05:46:11.735Z,52.81
2023-02-09T05:47:13.746Z,52.43
2023-02-09T05:48:15.251Z,52.60
2023-02-09T05:49:16.766Z,52.44
2023-02-09T05:50:18.330Z,52.60
2023-02-09T05:51:19.826Z,52.46
2023-02-09T05:52:21.470Z,52.47
2023-02-09T05:53:22.954Z,52.68
2023-02-09T05:54:24.495Z,52.73
2023-02-09T05:55:26.059Z,52.74
2023-02-09T05:56:27.543Z,52.69
2023-02-09T05:57:29.076Z,52.47
2023-02-09T05:58:30.578Z,52.69
2023-02-09T05:59:32.141Z,52.78
2023-02-09T06:00:33.633Z,52.84
2023-02-09T06:01:35.136Z,52.83
2023-02-09T06:02:36.678Z,52.91
2023-02-09T06:03:38.247Z,52.84
2023-02-09T06:04:39.808Z,52.83
2023-02-09T06:05:43.921Z,52.95
2023-02-09T06:06:45.461Z,53.11
2023-02-09T06:07:46.975Z,53.13
2023-02-09T06:08:48.517Z,53.00
2023-02-09T06:09:49.972Z,53.14
2023-02-09T06:10:51.449Z,53.11
2023-02-09T06:11:53.029Z,53.22
2023-02-09T06:12:54.555Z,53.24
2023-02-09T06:13:56.041Z,53.48
2023-02-09T06:14:57.619Z,53.81
2023-02-09T06:15:59.131Z,53.97
2023-02-09T06:17:00.711Z,53.93
2023-02-09T06:18:02.275Z,54.04
2023-02-09T06:19:03.879Z,54.16
2023-02-09T06:20:05.712Z,54.25
2023-02-09T06:21:07.255Z,53.92
2023-02-09T06:22:08.725Z,54.00
2023-02-09T06:23:10.368Z,53.75
2023-02-09T06:24:12.012Z,53.71
2023-02-09T06:25:13.474Z,53.63
2023-02-09T06:26:15.369Z,53.71
2023-02-09T06:27:16.886Z,53.68
2023-02-09T06:28:18.773Z,53.56
2023-02-09T06:29:20.271Z,54.25
2023-02-09T06:30:21.766Z,53.77
2023-02-09T06:31:23.404Z,53.83
2023-02-09T06:32:24.950Z,54.09
2023-02-09T06:33:26.532Z,54.01
2023-02-09T06:34:28.026Z,53.99
2023-02-09T06:35:29.540Z,54.03
2023-02-09T06:36:31.249Z,53.92
2023-02-09T06:37:32.720Z,53.77
2023-02-09T06:38:34.552Z,53.73
2023-02-09T06:39:36.068Z,53.81
2023-02-09T06:40:37.601Z,53.90
2023-02-09T06:41:39.779Z,53.69
2023-02-09T06:42:44.513Z,53.59
2023-02-09T06:43:46.035Z,53.61
2023-02-09T06:44:47.542Z,53.66
2023-02-09T06:45:49.155Z,53.59
2023-02-09T06:46:50.685Z,53.38
2023-02-09T06:47:52.213Z,53.62
2023-02-09T06:48:53.997Z,53.66
2023-02-09T06:49:55.551Z,53.49
2023-02-09T06:50:57.184Z,53.58
2023-02-09T06:51:58.856Z,53.64
2023-02-09T06:53:00.386Z,53.57
2023-02-09T06:54:01.886Z,53.72
2023-02-09T06:55:03.654Z,53.83
2023-02-09T06:56:05.453Z,53.72
2023-02-09T06:57:06.918Z,54.00
2023-02-09T06:58:08.447Z,53.77
2023-02-09T06:59:09.931Z,53.54
2023-02-09T07:00:11.645Z,53.54
2023-02-09T07:01:15.638Z,53.69
2023-02-09T07:02:17.319Z,53.58
2023-02-09T07:03:18.851Z,53.42
2023-02-09T07:04:20.358Z,53.51
2023-02-09T07:05:21.927Z,53.46
2023-02-09T07:06:23.468Z,53.64
2023-02-09T07:07:25.583Z,53.52
2023-02-09T07:08:27.116Z,53.64
2023-02-09T07:09:28.615Z,53.47
2023-02-09T07:10:30.306Z,53.54
2023-02-09T07:11:31.867Z,53.48
2023-02-09T07:12:33.430Z,53.59
2023-02-09T07:13:35.041Z,53.54
2023-02-09T07:14:36.618Z,53.68
2023-02-09T07:15:38.199Z,53.57
2023-02-09T07:16:39.749Z,53.58
2023-02-09T07:17:42.283Z,53.39
2023-02-09T07:18:43.738Z,53.33
2023-02-09T07:19:45.249Z,53.43
2023-02-09T07:20:53.014Z,53.42
2023-02-09T07:21:54.502Z,53.35
2023-02-09T07:22:56.010Z,53.06
2023-02-09T07:23:57.475Z,53.25
2023-02-09T07:24:58.968Z,53.25
2023-02-09T07:26:04.150Z,53.38
2023-02-09T07:27:05.864Z,53.26
2023-02-09T07:28:07.408Z,52.98
2023-02-09T07:29:08.902Z,53.22
2023-02-09T07:30:10.916Z,53.07
2023-02-09T07:31:12.882Z,53.08
2023-02-09T07:32:14.685Z,53.17
2023-02-09T07:33:16.245Z,53.14
2023-02-09T07:34:17.720Z,53.39
2023-02-09T07:35:19.223Z,53.65
2023-02-09T07:36:20.701Z,53.69
2023-02-09T07:37:22.420Z,53.55
2023-02-09T07:38:24.070Z,53.77
2023-02-09T07:39:25.837Z,54.06
2023-02-09T07:40:27.531Z,53.76
2023-02-09T07:41:29.508Z,53.79
2023-02-09T07:42:31.013Z,53.78
2023-02-09T07:43:35.958Z,53.91
2023-02-09T07:44:37.433Z,54.17
2023-02-09T07:45:38.993Z,53.74
2023-02-09T07:46:40.685Z,53.94
2023-02-09T07:47:42.187Z,53.57
2023-02-09T07:48:43.645Z,53.50
2023-02-09T07:49:46.911Z,53.41
2023-02-09T07:50:49.002Z,53.33
2023-02-09T07:51:50.607Z,52.89
2023-02-09T07:52:55.228Z,52.71
2023-02-09T07:53:56.824Z,52.96
2023-02-09T07:54:58.368Z,52.67
2023-02-09T07:55:59.828Z,52.10
2023-02-09T07:57:01.330Z,51.94
2023-02-09T07:58:02.817Z,51.75
2023-02-09T07:59:04.289Z,51.23
2023-02-09T08:00:05.970Z,51.27
2023-02-09T08:01:16.632Z,50.92
2023-02-09T08:02:50.329Z,50.63
2023-02-09T08:03:51.854Z,50.29
2023-02-09T08:04:53.431Z,50.05
2023-02-09T08:05:58.781Z,49.74
2023-02-09T08:07:00.288Z,49.86
2023-02-09T08:08:01.803Z,49.30
2023-02-09T08:09:03.717Z,48.64
2023-02-09T08:10:05.359Z,48.54
2023-02-09T08:11:06.870Z,48.53
2023-02-09T08:12:08.645Z,48.30
2023-02-09T08:13:10.201Z,48.33
2023-02-09T08:14:13.430Z,48.03
2023-02-09T08:15:15.174Z,47.73
2023-02-09T08:16:17.669Z,47.47
2023-02-09T08:17:23.191Z,47.28
2023-02-09T08:18:44.089Z,46.79
2023-02-09T08:19:46.814Z,46.66
2023-02-09T08:20:48.334Z,46.42
2023-02-09T08:21:50.075Z,46.16
2023-02-09T08:22:51.747Z,46.14
2023-02-09T08:23:53.752Z,45.62
2023-02-09T08:24:55.224Z,45.72
2023-02-09T08:25:56.844Z,45.28
2023-02-09T08:26:58.325Z,45.56
2023-02-09T08:28:00.151Z,45.36
2023-02-09T08:29:01.685Z,45.19
2023-02-09T08:30:03.379Z,45.34
2023-02-09T08:31:04.924Z,45.25
2023-02-09T08:32:06.577Z,44.71
2023-02-09T08:33:08.086Z,44.94
2023-02-09T08:34:09.532Z,44.79
2023-02-09T08:35:11.183Z,44.10
2023-02-09T08:36:12.927Z,43.83
2023-02-09T08:37:14.402Z,43.56
2023-02-09T08:38:15.975Z,43.45
2023-02-09T08:39:17.442Z,43.65
2023-02-09T08:40:18.990Z,43.43
2023-02-09T08:41:20.506Z,43.10
2023-02-09T08:42:22.004Z,43.33
2023-02-09T08:43:23.488Z,43.06
2023-02-09T08:44:24.982Z,43.14
2023-02-09T08:45:26.655Z,43.22
2023-02-09T08:46:28.715Z,42.14
2023-02-09T08:47:30.296Z,42.51
2023-02-09T08:48:33.231Z,42.10
2023-02-09T08:49:35.721Z,41.45
2023-02-09T08:50:37.526Z,41.25
2023-02-09T08:51:39.021Z,41.22
2023-02-09T08:52:40.482Z,40.34
2023-02-09T08:53:43.374Z,40.86
2023-02-09T08:54:44.990Z,40.09
2023-02-09T08:55:46.885Z,40.06
2023-02-09T08:56:48.589Z,39.94
2023-02-09T08:57:50.070Z,39.72
2023-02-09T08:58:51.653Z,39.43
2023-02-09T08:59:53.145Z,39.96
2023-02-09T09:00:57.417Z,39.69
2023-02-09T09:01:59.031Z,39.01
2023-02-09T09:03:03.652Z,38.63
2023-02-09T09:04:05.145Z,39.05
2023-02-09T09:05:06.901Z,38.88
2023-02-09T09:06:08.765Z,39.78
2023-02-09T09:07:10.245Z,39.36
2023-02-09T09:08:11.776Z,39.31
2023-02-09T09:09:13.391Z,38.69
2023-02-09T09:10:14.898Z,39.69
2023-02-09T09:11:17.316Z,40.03
2023-02-09T09:12:18.866Z,39.61
2023-02-09T09:13:20.363Z,39.04
2023-02-09T09:14:21.820Z,38.95
2023-02-09T09:15:23.345Z,39.46
2023-02-09T09:16:24.960Z,39.33
2023-02-09T09:17:26.549Z,39.23
2023-02-09T09:18:28.025Z,38.96
2023-02-09T09:19:29.690Z,38.89
2023-02-09T09:20:31.288Z,38.71
2023-02-09T09:21:32.795Z,39.16
2023-02-09T09:22:34.307Z,38.45
2023-02-09T09:23:35.799Z,38.39
2023-02-09T09:24:40.703Z,38.61
2023-02-09T09:25:42.462Z,37.70
2023-02-09T09:26:44.051Z,38.09
2023-02-09T09:27:45.535Z,37.68
2023-02-09T09:28:49.160Z,37.96
2023-02-09T09:29:50.680Z,37.62
2023-02-09T09:30:52.241Z,37.50
2023-02-09T09:31:54.070Z,36.85
2023-02-09T09:32:55.704Z,36.70
2023-02-09T09:33:57.317Z,36.88
2023-02-09T09:34:59.008Z,36.99
2023-02-09T09:36:01.037Z,37.41
2023-02-09T09:37:02.570Z,37.82
2023-02-09T09:38:04.736Z,37.45
2023-02-09T09:39:06.217Z,37.00
2023-02-09T09:40:07.843Z,37.53
2023-02-09T09:41:38.669Z,37.48
2023-02-09T09:42:40.622Z,37.19
2023-02-09T09:43:42.158Z,37.10
2023-02-09T09:44:46.215Z,37.75
2023-02-09T09:45:49.108Z,37.99
2023-02-09T09:46:51.263Z,37.45
2023-02-09T09:47:52.786Z,37.00
2023-02-09T09:48:54.868Z,37.26
2023-02-09T09:49:56.396Z,36.61
2023-02-09T09:50:58.583Z,36.61
2023-02-09T09:52:02.367Z,36.95
2023-02-09T09:53:03.821Z,36.83
2023-02-09T09:54:06.294Z,36.47
2023-02-09T09:55:08.250Z,36.45
2023-02-09T09:56:10.164Z,35.60
2023-02-09T09:57:27.541Z,36.77
2023-02-09T09:58:30.103Z,35.96
2023-02-09T09:59:38.416Z,36.61
2023-02-09T10:00:40.609Z,36.89
2023-02-09T10:01:42.202Z,36.26
2023-02-09T10:02:44.553Z,36.33
2023-02-09T10:03:46.020Z,35.95
2023-02-09T10:04:47.976Z,35.92
2023-02-09T10:05:53.096Z,35.41
2023-02-09T10:06:58.092Z,34.91
2023-02-09T10:08:08.243Z,34.84
2023-02-09T10:09:15.761Z,35.17
2023-02-09T10:10:19.738Z,35.50
2023-02-09T10:11:26.030Z,35.07
2023-02-09T10:12:39.697Z,34.24
2023-02-09T10:13:54.042Z,34.48
2023-02-09T10:14:55.537Z,34.68
2023-02-09T10:15:57.152Z,34.57
2023-02-09T10:16:58.687Z,34.41
2023-02-09T10:18:00.318Z,34.43
2023-02-09T10:19:02.507Z,34.44
2023-02-09T10:20:04.707Z,34.54
2023-02-09T10:21:09.778Z,34.10
2023-02-09T10:22:12.638Z,33.49
2023-02-09T10:23:21.783Z,33.88
2023-02-09T10:24:24.233Z,33.98
2023-02-09T10:25:50.099Z,33.66
2023-02-09T10:27:20.998Z,34.28
2023-02-09T10:28:23.167Z,34.46
2023-02-09T10:29:25.090Z,34.35
2023-02-09T10:30:27.528Z,33.92
2023-02-09T10:31:29.944Z,33.79
2023-02-09T10:32:39.906Z,33.90
2023-02-09T10:33:42.137Z,34.39
2023-02-09T10:34:47.679Z,34.63
2023-02-09T10:35:51.510Z,34.80
2023-02-09T10:36:53.872Z,35.15
2023-02-09T10:37:59.089Z,34.79
2023-02-09T10:39:04.531Z,34.82
2023-02-09T10:40:15.942Z,34.82
2023-02-09T10:41:17.454Z,34.54
2023-02-09T10:42:31.822Z,35.38
2023-02-09T10:43:33.752Z,35.62
2023-02-09T10:44:35.234Z,36.01
2023-02-09T10:45:36.679Z,36.39
2023-02-09T10:46:38.772Z,35.83
2023-02-09T10:47:40.375Z,35.44
2023-02-09T10:48:42.871Z,34.70
2023-02-09T10:49:44.704Z,34.71
2023-02-09T10:50:53.768Z,34.63
2023-02-09T10:52:05.728Z,34.50
2023-02-09T10:53:17.028Z,34.15
2023-02-09T10:54:21.598Z,34.57
2023-02-09T10:55:25.480Z,35.06
2023-02-09T10:56:28.272Z,34.76
2023-02-09T10:57:30.749Z,34.31
2023-02-09T10:58:33.085Z,33.97
2023-02-09T10:59:36.162Z,34.01
2023-02-09T11:00:43.745Z,33.82
2023-02-09T11:01:49.535Z,33.65
2023-02-09T11:02:51.836Z,34.20
2023-02-09T11:04:00.800Z,34.47
2023-02-09T11:05:02.777Z,33.97
2023-02-09T11:06:13.506Z,33.85
2023-02-09T11:07:16.571Z,33.44
2023-02-09T11:08:21.272Z,33.47
2023-02-09T11:09:35.613Z,32.98
2023-02-09T11:10:39.122Z,33.28
2023-02-09T11:11:40.898Z,33.35
2023-02-09T11:12:43.535Z,33.72
2023-02-09T11:13:45.021Z,34.29
2023-02-09T11:14:46.548Z,34.20
2023-02-09T11:16:03.056Z,33.64
2023-02-09T11:17:23.347Z,33.95
2023-02-09T11:18:25.581Z,34.37
2023-02-09T11:19:36.137Z,34.88
2023-02-09T11:20:43.167Z,34.11
2023-02-09T11:22:03.449Z,34.18
2023-02-09T11:23:28.005Z,34.15
2023-02-09T11:24:40.636Z,33.88
2023-02-09T11:26:08.053Z,34.02
2023-02-09T11:27:15.537Z,35.29
2023-02-09T11:28:32.490Z,34.97
2023-02-09T11:29:37.772Z,35.00
2023-02-09T11:30:48.724Z,35.26
2023-02-09T11:32:02.729Z,35.00
2023-02-09T11:33:16.454Z,34.65
2023-02-09T11:34:36.239Z,34.77
2023-02-09T11:35:43.763Z,34.84
2023-02-09T11:36:48.015Z,35.14
2023-02-09T11:37:56.835Z,34.58
2023-02-09T11:38:59.573Z,34.91
2023-02-09T11:40:27.510Z,34.98
2023-02-09T11:41:48.490Z,34.89
2023-02-09T11:42:53.054Z,35.10
2023-02-09T11:43:54.552Z,34.70
2023-02-09T11:45:07.923Z,35.05
2023-02-09T11:46:14.872Z,35.75
2023-02-09T11:47:21.000Z,35.23
2023-02-09T11:48:23.922Z,35.31
2023-02-09T11:49:25.387Z,35.47
2023-02-09T11:50:28.349Z,35.16
2023-02-09T11:51:31.840Z,34.90
2023-02-09T11:52:37.698Z,35.33
2023-02-09T11:53:51.317Z,35.72
2023-02-09T11:54:53.021Z,35.86
2023-02-09T11:56:01.834Z,35.93
2023-02-09T11:57:05.594Z,35.74
2023-02-09T11:58:18.543Z,35.91
2023-02-09T11:59:21.769Z,35.94
2023-02-09T12:00:24.397Z,36.11
2023-02-09T12:01:29.783Z,36.23
2023-02-09T12:02:40.439Z,36.17
2023-02-09T12:03:42.949Z,36.18
2023-02-09T12:04:50.128Z,36.86
2023-02-09T12:05:51.632Z,36.77
2023-02-09T12:07:00.039Z,36.01
2023-02-09T12:08:20.033Z,35.45
2023-02-09T12:09:21.535Z,35.98
2023-02-09T12:10:22.993Z,35.52
2023-02-09T12:11:24.565Z,35.70
2023-02-09T12:12:31.119Z,35.57
2023-02-09T12:13:41.571Z,36.39
2023-02-09T12:15:01.322Z,36.07
2023-02-09T12:16:08.260Z,36.58
2023-02-09T12:17:12.504Z,36.45
2023-02-09T12:18:21.252Z,36.42
2023-02-09T12:19:32.090Z,36.78
2023-02-09T12:20:36.307Z,36.61
2023-02-09T12:21:38.504Z,36.31
2023-02-09T12:22:44.144Z,36.48
2023-02-09T12:23:46.609Z,36.15
2023-02-09T12:25:06.224Z,35.99
2023-02-09T12:26:16.889Z,36.46
2023-02-09T12:27:25.051Z,37.19
2023-02-09T12:28:32.490Z,36.62
2023-02-09T12:29:41.805Z,36.11
2023-02-09T12:30:43.365Z,36.01
2023-02-09T12:32:06.182Z,36.29
2023-02-09T12:33:27.378Z,36.49
2023-02-09T12:34:39.335Z,36.65
2023-02-09T12:35:57.956Z,36.60
2023-02-09T12:37:14.400Z,36.73
2023-02-09T12:38:16.923Z,36.89
2023-02-09T12:39:24.090Z,37.13
2023-02-09T12:40:25.759Z,36.83
2023-02-09T12:41:40.975Z,37.08
2023-02-09T12:42:51.716Z,37.27
2023-02-09T12:44:08.226Z,37.67
2023-02-09T12:45:28.399Z,37.78
2023-02-09T12:46:30.182Z,37.66
2023-02-09T12:48:01.025Z,37.49
2023-02-09T12:49:08.413Z,37.13
2023-02-09T12:50:18.689Z,37.64
2023-02-09T12:51:38.785Z,37.41
2023-02-09T12:52:41.670Z,37.07
2023-02-09T12:53:44.463Z,36.84
2023-02-09T12:54:57.939Z,36.73
2023-02-09T12:56:11.346Z,36.51
2023-02-09T12:57:15.805Z,37.24
2023-02-09T12:58:36.176Z,37.59
2023-02-09T12:59:37.697Z,36.73
2023-02-09T13:00:40.790Z,37.01
2023-02-09T13:02:00.722Z,36.80
2023-02-09T13:03:07.970Z,37.20
2023-02-09T13:04:09.603Z,36.68
2023-02-09T13:05:11.571Z,36.84
2023-02-09T13:06:31.759Z,36.98
2023-02-09T13:07:33.398Z,37.25
2023-02-09T13:08:36.395Z,36.92
2023-02-09T13:09:38.670Z,37.13
2023-02-09T13:10:55.127Z,37.36
2023-02-09T13:12:00.105Z,36.98
2023-02-09T13:13:13.969Z,37.37
2023-02-09T13:14:15.470Z,37.41
2023-02-09T13:15:17.540Z,37.50
2023-02-09T13:16:21.990Z,37.55
2023-02-09T13:17:44.077Z,37.30
2023-02-09T13:18:55.592Z,37.11
2023-02-09T13:19:57.384Z,37.32
2023-02-09T13:21:26.987Z,36.92
2023-02-09T13:22:41.106Z,36.89
2023-02-09T13:23:45.074Z,36.67
2023-02-09T13:24:53.083Z,36.62
2023-02-09T13:25:58.409Z,36.85
2023-02-09T13:26:59.932Z,36.93
2023-02-09T13:28:06.460Z,37.12
2023-02-09T13:29:19.749Z,37.32
2023-02-09T13:30:28.983Z,37.02
2023-02-09T13:31:34.815Z,37.40
2023-02-09T13:32:45.147Z,37.37
2023-02-09T13:33:51.429Z,37.16
2023-02-09T13:35:11.374Z,37.13
2023-02-09T13:36:31.438Z,37.18
2023-02-09T13:37:35.980Z,37.53
2023-02-09T13:38:37.476Z,37.82
2023-02-09T13:39:39.752Z,37.80
2023-02-09T13:40:44.989Z,37.47
2023-02-09T13:41:48.360Z,37.57
2023-02-09T13:43:13.173Z,37.64
2023-02-09T13:44:21.511Z,37.64
2023-02-09T13:45:24.060Z,37.38
2023-02-09T13:46:27.737Z,37.26
2023-02-09T13:47:29.335Z,37.51